Stamford, NY (12167)

4:20 AM EDT on August 04, 2015 (GMT -0400)
Van Dyke Ave | | Change Station
CLOSE
Current Station
Personal Weather Station
Location: Stamford, NY
Elevation: 1940 ft
Nearby Weather Stations

Elev 1940 ft 42.42 °N, 74.62 °W | Updated 4 seconds ago

Mostly Cloudy
Mostly Cloudy
59.1 °F
Feels Like 59.1 °F
N
0.0
Wind Variable Wind from ESE
Gusts 0.0 mph

Today
High -- | Low -- °F
--% Chance of Precip.
Yesterday
High -- | Low -- °F
Precip. -- in
5:53 AM 8:14 PM
Waning Gibbous, 80% visible
Pressure 29.83 in
Visibility 10.0 miles
Clouds Few 500 ft
Mostly Cloudy 8500 ft
Mostly Cloudy 11000 ft
Overcast 13000 ft
Dew Point 58 °F
Humidity 98%
Rainfall 0.00 in
Snow Depth Not available.
UV 0 out of 12
Pollen 8.40 out of 12
Air Quality Not available.
Flu Activity Not available.
METAR KALB 040751Z 18004KT 10SM FEW005 BKN085 BKN110 OVC130 20/19 A2983 RMK AO2 RAB41E49 SLP099 VCSH E P0000 T02000189 $

More Conditions Fewer Conditions

Pressure 29.83 in
Visibility 10.0 miles
Clouds Few 500 ft
Mostly Cloudy 8500 ft
Mostly Cloudy 11000 ft
Overcast 13000 ft
Dew Point 58 °F
Humidity 98%
Rainfall 0.00 in
Snow Depth Not available.
UV 0 out of 12
Pollen 8.40 out of 12
Air Quality Not available.
Flu Activity Not available.
METAR KALB 040751Z 18004KT 10SM FEW005 BKN085 BKN110 OVC130 20/19 A2983 RMK AO2 RAB41E49 SLP099 VCSH E P0000 T02000189 $

More Conditions Fewer Conditions

10-Day Weather Forecast

×

Almanac

Astronomy

Aug. 04, 2015 Rise Set
Actual Time
Civil Twilight
Nautical Twilight
Astronomical Twilight
Moon
Length of Visible Light
Length of Day
Tomorrow will be .
, % of the Moon is Illuminated

Today's Extremes

State Highs State Lows

Community

WunderPhotos

Upload Photos

1,843,877 photos uploaded!

WunderBlogs® & News

Nearby

Air Quality

  Air Quality AQ Index Pollutant
Not available.

Snow Depth

Station Depth Elevation

Earthquake Activity

City Distance Mag. Time & Date
Minimum magnitude displayed is 2.5.

Coastal Water Temperatures

Place Temperature

Stations

Nearby Weather Stations

Station Location Temp. Windchill Dew Point Humidity Wind Precip. Elev Updated Type